• Join FlightAware (Why Join?)
  • Login
  • US Flag 
06:06PM EDT


 

Airport Tracker/Info


-or-


 

Live Flight TrackerFlight Track Log ✈ N400TM ✈ 28-Aug-2013 ✈ KPHX - KOLS

Flight Track Log - Related Links

Times and Time Zones

All times are in EDT time to prevent confusion due to time zone crossing. See the N400TM flight status page for this flight to view local times or setup timezone preferences in your user account.

Time Position Orientation Groundspeed Altitude Reporting Facility
EDT Latitude Longitude Course Direction KTS MPH feet Rate Location/Type
10:27AM 33.5500 -112.1000 203° Southwest 160 184 2,900  Level Phoenix TRACON
10:28AM 33.5167 -112.0833 157° South 123 142 3,500 600 Climbing Phoenix TRACON
10:29AM 33.5000 -112.0667 140° Southeast 112 129 4,200 780 Climbing Phoenix TRACON
10:30AM 33.4833 -112.0500 140° Southeast 109 125 5,000 660 Climbing Phoenix TRACON
10:31AM 33.4500 -112.0500 180° South 117 135 5,600 540 Climbing Phoenix TRACON
10:32AM 33.4167 -112.0500 180° South 125 144 6,100 240 Climbing Phoenix TRACON
10:33AM 33.3733 -112.0414 171° South 144 166 6,100 -60 Level Albuquerque Center
10:34AM 33.3358 -112.0128 147° Southeast 157 181 6,000 -60 Descending Albuquerque Center
10:35AM 33.2953 -111.9875 152° Southeast 164 189 6,000  Level Albuquerque Center
10:36AM 33.2544 -111.9611 152° Southeast 166 191 6,000  Level Albuquerque Center
10:37AM 33.2144 -111.9356 152° Southeast 164 189 6,100 120 Climbing Albuquerque Center
10:38AM 33.1753 -111.9103 152° Southeast 160 184 6,300 240 Climbing Albuquerque Center
10:39AM 33.1300 -111.8811 152° Southeast 155 178 6,700 480 Climbing Albuquerque Center
10:40AM 33.0964 -111.8617 154° Southeast 137 158 7,400 660 Climbing Albuquerque Center
10:42AM 33.0532 -111.8351 152° Southeast  Level Estimated
10:49AM 32.8445 -111.6572 154° Southeast  Level FlightAware Approximate
10:50AM 32.8123 -111.6381 154° Southeast  Level FlightAware Approximate
10:51AM 32.7800 -111.6190 154° Southeast  Level FlightAware Approximate
10:52AM 32.7478 -111.6000 154° Southeast  Level FlightAware Approximate
10:53AM 32.7156 -111.5809 154° Southeast  Level FlightAware Approximate
10:54AM 32.6834 -111.5619 154° Southeast  Level FlightAware Approximate
10:55AM 32.6511 -111.5429 154° Southeast  Level FlightAware Approximate
10:56AM 32.6189 -111.5239 154° Southeast  Level FlightAware Approximate
10:57AM 32.5867 -111.5049 154° Southeast  Level FlightAware Approximate
10:58AM 32.5544 -111.4859 154° Southeast  Level FlightAware Approximate
10:59AM 32.5218 -111.4679 155° Southeast  Level FlightAware Approximate
11:00AM 32.4891 -111.4501 155° Southeast  Level FlightAware Approximate
11:01AM 32.4564 -111.4322 155° Southeast  Level FlightAware Approximate
11:02AM 32.4237 -111.4144 155° Southeast  Level FlightAware Approximate
11:03AM 32.3910 -111.3966 155° Southeast  Level FlightAware Approximate
11:04AM 32.3583 -111.3788 155° Southeast  Level FlightAware Approximate
11:05AM 32.3256 -111.3610 155° Southeast  Level FlightAware Approximate
11:06AM 32.2929 -111.3432 155° Southeast  Level FlightAware Approximate
11:07AM 32.2602 -111.3254 155° Southeast  Level FlightAware Approximate
11:08AM 32.2275 -111.3077 155° Southeast  Level FlightAware Approximate
11:09AM 32.1948 -111.2900 155° Southeast  Level FlightAware Approximate
11:10AM 32.1621 -111.2722 155° Southeast  Level FlightAware Approximate
11:11AM 32.1293 -111.2545 155° Southeast  Level FlightAware Approximate
11:12AM 32.0966 -111.2368 155° Southeast  Level FlightAware Approximate
11:13AM 32.0639 -111.2191 155° Southeast  Level FlightAware Approximate
11:14AM 32.0312 -111.2015 155° Southeast  Level FlightAware Approximate
11:15AM 31.9984 -111.1838 155° Southeast  Level FlightAware Approximate
11:16AM 31.9658 -111.1660 146° Southeast  Level FlightAware Approximate
11:17AM 31.9360 -111.1421 146° Southeast  Level FlightAware Approximate
11:18AM 31.9062 -111.1183 146° Southeast  Level FlightAware Approximate
11:19AM 31.8758 -111.0958 155° Southeast  Level FlightAware Approximate
11:20AM 31.8433 -111.0777 155° Southeast  Level FlightAware Approximate
11:21AM 31.8108 -111.0596 155° Southeast  Level FlightAware Approximate
11:22AM 31.7782 -111.0416 155° Southeast  Level FlightAware Approximate
11:23AM 31.7457 -111.0235 155° Southeast  Level FlightAware Approximate
11:24AM 31.7130 -111.0058 156° South  Level FlightAware Approximate
11:25AM 31.6802 -110.9883 156° South  Level FlightAware Approximate
11:26AM 31.6475 -110.9708 156° South  Level FlightAware Approximate
11:27AM 31.6147 -110.9533 156° South  Level FlightAware Approximate
11:28AM 31.5819 -110.9358 156° South  Level FlightAware Approximate
11:29AM 31.5492 -110.9184 156° South  Level FlightAware Approximate
11:30AM 31.5164 -110.9009 156° South  Level FlightAware Approximate
11:31AM 31.4836 -110.8835 156° South  Level FlightAware Approximate
11:32AM 31.4533 -110.8608 147° Southeast  Level FlightAware Approximate
11:33AM 31.4229 -110.8380 147° Southeast  Level FlightAware Approximate
11:34AM 31.4167 -110.8333 147° Southeast  Level FlightAware Approximate
11:35AM 31.4177 -110.8479 147° Southeast  Level Estimated
11:36AM 31.4177 -110.8479 147° Southeast  Level Estimated
11:37AM 31.4177 -110.8479 147° Southeast  Level Estimated
11:38AM 31.4177 -110.8479 147° Southeast  Level Estimated
11:39AM 31.4177 -110.8479 147° Southeast  Level Estimated
11:40AM 31.4177 -110.8479 147° Southeast  Level Estimated
11:41AM 31.4177 -110.8479 147° Southeast  Level Estimated
11:42AM 31.4177 -110.8479 147° Southeast  Level Estimated
11:43AM 31.4177 -110.8479 147° Southeast  Level Estimated
11:44AM 31.4177 -110.8479 147° Southeast  Level Estimated